Pagina principale
Immagini satellite Previsioni 15 giorniClimaMeteomar Cicloni Fulmine AeroportiFAQ Bollettino Informazioni
Tempo : Europa Africa America settentrionale America meridionale Asia Australia-Oceania Altri
Lingue Contatto

Genova, Italia

Sestri

latitudine: 44-25N, longitudine: 008-51E, altezza: 2 m


METAR: LIMJ 200120Z 09007KT 9999 SCT014 BKN030 15/12 Q1022
TAF: LIMJ 192300Z 2000/2024 VRB06KT 9999 BKN030

Ora: 02:34 (01:34 UTC)

Osservazione

Il bollettino è stato emesso 14 minuti fa, alle 01:20 UTC
Vento 7 kt da est
Temperature 15°C
Umidità 82%
Pressione 1022 hPa
Visibilità 10 km o più
Nubi sparse ad un'altezza di 1400 ft
Nuvoloso ad un'altezza di 3000 ft

Cambiare le unità

Previsione

Il bollettino è stato emesso 2 ore e 34 minuti fa, alle 23:00 UTC
Previsione valida dal 20 alle 00 UTC al 20 alle 24 UTC
Vento 6 kt da direzioni variabili
Visibilità 10 km o più
Nuvoloso ad un'altezza di 3000 ft
Le informazioni contenute in questo sito formano oggetto di una clausola di esclusione di responsabilità
Tempo : Europa Africa America settentrionale America meridionale Asia Australia-Oceania Altri
Immagini satellite Previsioni 15 giorniClimaMeteomar Cicloni Fulmine AeroportiFAQ Lingue Contatto Bollettino Informazioni